Nearby METAR Reports

This page may be slow to load as it queries the National Weather Service for data.

KBIS - Bismarck, North Dakota, USA
Distance from station: S 10mi, 15km
Updated: Sun, 20-May-2018 1:52pm CDT
Clear
Clear
 Wind from SSE
Wind: SSE 9 mph , 15 km/h
Temperature: 66°F , 19°C
Dew Point: 36°F , 2°C
Humidity: 32%
Barometer: 30.23 inHg , 1023.7 hPa
Clouds: Clear
Visibility: 10 miles , 16 km
2018/05/20 18:52 KBIS 201852Z 16008KT 10SM CLR 19/02 A3023 RMK AO2 SLP242 T01890022
KDIK - Dickinson, North Dakota, USA
Distance from station: W 95mi, 154km
Updated: Sun, 20-May-2018 1:56pm CDT
Clear
Clear
 Wind from S
Wind: S 17 mph , 28 km/h, Gust: 24 mph , 39 km/h
Temperature: 66°F , 19°C
Dew Point: 34°F , 1°C
Humidity: 30%
Barometer: 30.18 inHg , 1022 hPa
Clouds: Clear
Visibility: 10 miles , 16 km
2018/05/20 18:56 KDIK 201856Z AUTO 17015G21KT 10SM CLR 19/01 A3018 RMK AO2 SLP225 T01890011
 
KISN - Williston, North Dakota, USA
Distance from station: NNW 2mi, 2km
Updated: Sun, 20-May-2018 1:52pm CDT
Clear
Clear
 Wind from SE
Wind: SE 15 mph , 24 km/h, Gust: 25 mph , 41 km/h
Temperature: 70°F , 21°C
Dew Point: 30°F , -1°C
Humidity: 23%
Barometer: 30.17 inHg , 1021.7 hPa
Clouds: Clear
Visibility: 10 miles , 16 km
2018/05/20 18:52 KISN 201852Z AUTO 14013G22KT 10SM CLR 21/M01 A3017 RMK AO2 PK WND 15026/1822 SLP219 T02061006
KFAR - Fargo, North Dakota, USA
Distance from station: NNW 4mi, 7km
Updated: Wed, 31-Dec-1969 6:00pm CST
NOT Current
unable to load KFAR data RC=404 Not Found
unable to load KFAR data RC=404 Not Found
 
 
KGFK - Grand Forks, North Dakota, USA
Distance from station: NNW 76mi, 123km
Updated: Sun, 20-May-2018 1:53pm CDT
Clear
Clear
 Wind from varies
Wind: varies 6 mph , 9 km/h
Temperature: 72°F , 22°C
Dew Point: 37°F , 3°C
Humidity: 29%
Barometer: 30.21 inHg , 1023 hPa
Clouds: Clear
Visibility: 10 miles , 16 km
2018/05/20 18:53 KGFK 201853Z VRB05KT 10SM CLR 22/03 A3021 RMK AO2 SLP234 T02170028
KMOT - Minot, North Dakota, USA
Distance from station: E 109mi, 175km
Updated: Sun, 20-May-2018 1:54pm CDT
Clear
Clear
 Wind from S
Wind: S 13 mph , 20 km/h, Gust: 20 mph , 31 km/h
Temperature: 73°F , 23°C
Dew Point: 28°F , -2°C
Humidity: 19%
Barometer: 30.19 inHg , 1022.4 hPa
Clouds: Clear
Visibility: 10 miles , 16 km
2018/05/20 18:54 KMOT 201854Z 17011G17KT 10SM CLR 23/M02 A3019 RMK AO2 SLP225 T02281022